createdAt,value
2019-02-25T00:00:40.168Z,33.44
2019-02-25T00:03:08.766Z,33.33
2019-02-25T00:05:35.718Z,32.91
2019-02-25T00:08:02.636Z,32.86
2019-02-25T00:10:29.886Z,32.89
2019-02-25T00:12:57.172Z,33.00
2019-02-25T00:15:24.403Z,33.14
2019-02-25T00:17:51.739Z,33.19
2019-02-25T00:20:18.731Z,33.16
2019-02-25T00:22:46.098Z,33.17
2019-02-25T00:25:13.467Z,33.01
2019-02-25T00:27:40.428Z,32.93
2019-02-25T00:30:07.708Z,32.85
2019-02-25T00:32:34.716Z,32.75
2019-02-25T00:35:01.745Z,32.53
2019-02-25T00:37:30.163Z,32.37
2019-02-25T00:39:57.128Z,32.37
2019-02-25T00:42:24.133Z,32.37
2019-02-25T00:44:51.328Z,32.39
2019-02-25T00:47:18.611Z,32.32
2019-02-25T00:49:45.633Z,32.29
2019-02-25T00:52:12.635Z,32.17
2019-02-25T00:54:39.642Z,32.06
2019-02-25T00:57:08.929Z,32.03
2019-02-25T00:59:35.507Z,31.99
2019-02-25T01:02:02.428Z,31.89
2019-02-25T01:04:29.433Z,31.90
2019-02-25T01:06:56.438Z,31.63
2019-02-25T01:09:24.477Z,31.68
2019-02-25T01:11:51.494Z,31.83
2019-02-25T01:14:18.486Z,31.83
2019-02-25T01:16:45.490Z,31.95
2019-02-25T01:19:12.906Z,32.09
2019-02-25T01:21:39.883Z,32.31
2019-02-25T01:24:06.894Z,32.46
2019-02-25T01:26:33.948Z,32.59
2019-02-25T01:29:00.857Z,32.67
2019-02-25T01:31:27.950Z,32.84
2019-02-25T01:33:54.927Z,32.92
2019-02-25T01:36:21.885Z,32.99
2019-02-25T01:38:49.190Z,33.03
2019-02-25T01:41:16.550Z,33.14
2019-02-25T01:43:43.583Z,33.21
2019-02-25T01:46:10.605Z,33.28
2019-02-25T01:48:37.591Z,33.28
2019-02-25T01:51:04.620Z,33.30
2019-02-25T01:53:32.022Z,33.36
2019-02-25T01:55:59.021Z,33.36
2019-02-25T01:58:27.373Z,33.36
2019-02-25T02:00:54.415Z,33.36
2019-02-25T02:03:21.330Z,33.46
2019-02-25T02:05:48.667Z,33.45
2019-02-25T02:08:15.719Z,33.51
2019-02-25T02:10:42.679Z,33.65
2019-02-25T02:13:14.236Z,33.83
2019-02-25T02:15:38.276Z,33.83
2019-02-25T02:18:05.541Z,33.85
2019-02-25T02:20:32.445Z,33.94
2019-02-25T02:22:59.689Z,33.99
2019-02-25T02:25:26.706Z,34.07
2019-02-25T02:27:53.759Z,34.11
2019-02-25T02:30:20.757Z,34.12
2019-02-25T02:32:47.741Z,34.10
2019-02-25T02:35:15.095Z,34.16
2019-02-25T02:37:42.431Z,34.23
2019-02-25T02:40:09.776Z,34.30
2019-02-25T02:42:39.386Z,34.37
2019-02-25T02:45:06.437Z,34.39
2019-02-25T02:47:33.832Z,34.39
2019-02-25T02:50:00.781Z,34.39
2019-02-25T02:52:28.091Z,34.33
2019-02-25T02:54:55.002Z,34.35
2019-02-25T02:57:21.902Z,34.41
2019-02-25T02:59:49.171Z,34.39
2019-02-25T03:02:16.204Z,34.32
2019-02-25T03:04:43.168Z,34.34
2019-02-25T03:07:10.142Z,34.33
2019-02-25T03:09:37.166Z,34.30
2019-02-25T03:12:04.185Z,34.30
2019-02-25T03:14:32.669Z,34.34
2019-02-25T03:16:59.630Z,34.43
2019-02-25T03:19:26.638Z,34.55
2019-02-25T03:21:53.962Z,34.62
2019-02-25T03:24:20.944Z,34.65
2019-02-25T03:26:48.319Z,34.61
2019-02-25T03:29:15.262Z,34.59
2019-02-25T03:31:42.207Z,34.54
2019-02-25T03:34:09.187Z,34.46
2019-02-25T03:36:38.039Z,34.42
2019-02-25T03:39:04.989Z,34.44
2019-02-25T03:41:32.037Z,34.45
2019-02-25T03:43:59.001Z,34.49
2019-02-25T03:46:25.948Z,34.52
2019-02-25T03:48:56.600Z,34.58
2019-02-25T03:51:23.612Z,34.63
2019-02-25T03:53:50.587Z,34.63
2019-02-25T03:56:17.885Z,34.69
2019-02-25T03:58:44.903Z,34.71
2019-02-25T04:01:11.825Z,34.82
2019-02-25T04:03:38.774Z,34.87
2019-02-25T04:06:07.096Z,34.84
2019-02-25T04:08:34.152Z,34.77
2019-02-25T04:11:01.091Z,34.69
2019-02-25T04:13:28.475Z,34.67
2019-02-25T04:15:55.811Z,34.72
2019-02-25T04:18:22.837Z,34.74
2019-02-25T04:20:49.783Z,34.80
2019-02-25T04:23:17.216Z,34.80
2019-02-25T04:25:44.201Z,34.78
2019-02-25T04:28:11.223Z,34.79
2019-02-25T04:30:38.193Z,34.86
2019-02-25T04:33:05.176Z,34.94
2019-02-25T04:35:32.119Z,35.00
2019-02-25T04:37:59.120Z,35.00
2019-02-25T04:40:26.411Z,35.04
2019-02-25T04:42:53.829Z,35.13
2019-02-25T04:45:20.845Z,35.22
2019-02-25T04:47:47.851Z,35.28
2019-02-25T04:50:15.117Z,35.37
2019-02-25T04:52:42.678Z,35.41
2019-02-25T04:55:10.043Z,35.39
2019-02-25T04:57:37.017Z,35.39
2019-02-25T05:00:05.710Z,35.41
2019-02-25T05:02:33.156Z,35.47
2019-02-25T05:05:00.353Z,35.52
2019-02-25T05:07:27.294Z,35.44
2019-02-25T05:09:54.252Z,35.34
2019-02-25T05:12:21.205Z,35.37
2019-02-25T05:14:48.439Z,35.42
2019-02-25T05:17:15.442Z,35.44
2019-02-25T05:19:42.990Z,35.51
2019-02-25T05:22:10.028Z,35.63
2019-02-25T05:24:37.085Z,35.68
2019-02-25T05:27:08.487Z,35.69
2019-02-25T05:29:36.493Z,35.73
2019-02-25T05:32:03.427Z,35.74
2019-02-25T05:34:30.713Z,35.77
2019-02-25T05:36:57.678Z,35.73
2019-02-25T05:39:27.010Z,35.76
2019-02-25T05:41:58.770Z,35.66
2019-02-25T05:44:25.813Z,35.60
2019-02-25T05:46:52.823Z,35.52
2019-02-25T05:49:19.861Z,35.61
2019-02-25T05:51:47.154Z,35.67
2019-02-25T05:54:14.098Z,35.60
2019-02-25T05:56:43.520Z,35.62
2019-02-25T05:59:09.859Z,35.67
2019-02-25T06:01:37.142Z,35.84
2019-02-25T06:04:04.397Z,36.05
2019-02-25T06:06:31.753Z,36.06
2019-02-25T06:08:58.871Z,36.09
2019-02-25T06:11:25.892Z,36.10
2019-02-25T06:13:52.997Z,36.10
2019-02-25T06:16:19.990Z,36.01
2019-02-25T06:18:47.388Z,35.97
2019-02-25T06:21:14.923Z,35.89
2019-02-25T06:23:42.411Z,35.82
2019-02-25T06:26:09.382Z,35.81
2019-02-25T06:28:36.354Z,35.81
2019-02-25T06:31:06.687Z,35.82
2019-02-25T06:33:33.952Z,35.86
2019-02-25T06:36:00.926Z,35.86
2019-02-25T06:38:28.199Z,35.87
2019-02-25T06:40:55.239Z,35.87
2019-02-25T06:43:22.197Z,35.95
2019-02-25T06:45:49.666Z,35.97
2019-02-25T06:48:16.657Z,35.99
2019-02-25T06:50:43.989Z,35.90
2019-02-25T06:53:11.582Z,35.78
2019-02-25T06:55:38.797Z,35.65
2019-02-25T06:58:05.770Z,35.53
2019-02-25T07:00:32.820Z,35.46
2019-02-25T07:03:04.158Z,35.37
2019-02-25T07:05:31.260Z,35.33
2019-02-25T07:07:58.293Z,35.33
2019-02-25T07:10:25.483Z,35.20
2019-02-25T07:12:54.095Z,35.06
2019-02-25T07:15:21.508Z,34.92
2019-02-25T07:17:48.853Z,34.67
2019-02-25T07:20:15.830Z,34.49
2019-02-25T07:22:42.881Z,34.30
2019-02-25T07:25:17.006Z,34.05
2019-02-25T07:27:45.658Z,33.95
2019-02-25T07:30:12.675Z,33.77
2019-02-25T07:32:40.234Z,33.50
2019-02-25T07:35:07.191Z,33.18
2019-02-25T07:37:35.248Z,32.90
2019-02-25T07:40:02.250Z,32.71
2019-02-25T07:42:29.305Z,32.52
2019-02-25T07:44:56.258Z,32.43
2019-02-25T07:47:23.568Z,32.38
2019-02-25T07:49:50.942Z,32.06
2019-02-25T07:52:18.356Z,32.02
2019-02-25T07:54:45.482Z,31.97
2019-02-25T07:57:12.879Z,31.76
2019-02-25T07:59:39.926Z,31.60
2019-02-25T08:02:07.244Z,31.24
2019-02-25T08:04:34.530Z,30.93
2019-02-25T08:07:02.010Z,30.52
2019-02-25T08:09:29.355Z,30.01
2019-02-25T08:11:58.342Z,29.75
2019-02-25T08:14:25.360Z,29.64
2019-02-25T08:16:52.635Z,29.81
2019-02-25T08:19:19.819Z,29.45
2019-02-25T08:21:46.815Z,29.46
2019-02-25T08:24:13.794Z,29.45
2019-02-25T08:26:40.730Z,29.39
2019-02-25T08:29:07.941Z,29.35
2019-02-25T08:31:37.939Z,29.30
2019-02-25T08:34:05.011Z,29.31
2019-02-25T08:36:32.010Z,29.34
2019-02-25T08:38:59.411Z,29.01
2019-02-25T08:41:26.768Z,28.94
2019-02-25T08:43:55.747Z,28.76
2019-02-25T08:46:23.712Z,28.73
2019-02-25T08:48:50.806Z,28.75
2019-02-25T08:51:17.871Z,29.06
2019-02-25T08:53:44.910Z,29.13
2019-02-25T08:56:11.858Z,29.00
2019-02-25T08:58:38.916Z,28.77
2019-02-25T09:01:05.960Z,28.35
2019-02-25T09:03:42.663Z,28.10
2019-02-25T09:06:11.441Z,27.82
2019-02-25T09:08:38.529Z,28.02
2019-02-25T09:11:13.959Z,28.32
2019-02-25T09:13:34.651Z,28.21
2019-02-25T09:16:02.720Z,28.26
2019-02-25T09:18:29.799Z,28.20
2019-02-25T09:20:57.069Z,28.35
2019-02-25T09:23:25.771Z,28.25
2019-02-25T09:25:54.439Z,28.23
2019-02-25T09:28:21.540Z,28.41
2019-02-25T09:30:51.849Z,28.05
2019-02-25T09:33:18.865Z,27.89
2019-02-25T09:35:47.767Z,27.44
2019-02-25T10:36:56.338Z,28.10
2019-02-25T11:18:41.849Z,25.55
2019-02-25T11:21:21.139Z,23.85
2019-02-25T11:23:53.328Z,23.40
2019-02-25T11:26:19.897Z,23.13
2019-02-25T11:28:46.991Z,22.16
2019-02-25T11:33:52.627Z,20.59
2019-02-25T11:36:21.921Z,20.01
2019-02-25T11:38:48.410Z,19.39
2019-02-25T11:41:23.405Z,19.33
2019-02-25T11:43:55.206Z,20.07
2019-02-25T11:49:26.276Z,20.35
2019-02-25T11:51:57.719Z,19.54
2019-02-25T11:54:24.743Z,19.99
2019-02-25T11:56:51.837Z,20.19
2019-02-25T11:59:19.038Z,19.94
2019-02-25T12:01:46.123Z,19.78
2019-02-25T12:04:19.933Z,20.71
2019-02-25T12:06:47.536Z,21.31
2019-02-25T12:09:14.801Z,21.33
2019-02-25T12:11:45.332Z,21.91
2019-02-25T12:14:13.708Z,22.16
2019-02-25T12:16:44.800Z,22.57
2019-02-25T12:19:17.866Z,22.45
2019-02-25T12:21:46.518Z,22.42
2019-02-25T12:24:13.977Z,21.94
2019-02-25T12:26:52.458Z,21.59
2019-02-25T12:29:23.657Z,20.88
2019-02-25T12:31:52.993Z,20.19
2019-02-25T12:34:25.475Z,20.75
2019-02-25T12:36:56.820Z,20.48
2019-02-25T12:39:27.489Z,20.69
2019-02-25T12:41:54.605Z,20.32
2019-02-25T12:44:25.115Z,19.67
2019-02-25T12:49:56.485Z,19.33
2019-02-25T12:52:26.704Z,19.45
2019-02-25T12:54:54.816Z,19.63
2019-02-25T12:59:54.928Z,19.64
2019-02-25T13:02:29.353Z,20.19
2019-02-25T13:04:57.328Z,20.01
2019-02-25T13:07:24.295Z,20.49
2019-02-25T13:09:57.064Z,20.72
2019-02-25T13:12:24.051Z,20.38
2019-02-25T13:14:51.436Z,20.07
2019-02-25T13:17:18.419Z,20.03
2019-02-25T13:19:48.707Z,19.74
2019-02-25T13:22:18.412Z,19.66
2019-02-25T13:24:48.458Z,19.50
2019-02-25T13:27:23.767Z,19.40
2019-02-25T13:29:56.642Z,19.25
2019-02-25T13:32:24.153Z,19.03
2019-02-25T13:34:51.439Z,19.15
2019-02-25T13:37:21.634Z,19.28
2019-02-25T13:45:18.554Z,19.81
2019-02-25T13:47:46.249Z,19.47
2019-02-25T13:50:20.920Z,19.41
2019-02-25T13:52:57.508Z,19.44
2019-02-25T13:55:24.522Z,19.35
2019-02-25T13:57:52.604Z,19.38
2019-02-25T14:00:20.270Z,19.35
2019-02-25T14:02:50.959Z,19.26
2019-02-25T14:05:18.011Z,20.40
2019-02-25T14:07:45.262Z,23.05
2019-02-25T14:10:12.218Z,24.21
2019-02-25T14:12:39.672Z,24.69
2019-02-25T14:15:07.126Z,24.73
2019-02-25T14:17:34.086Z,25.49
2019-02-25T14:20:01.077Z,26.19
2019-02-25T14:22:28.220Z,26.08
2019-02-25T14:24:55.195Z,25.86
2019-02-25T14:27:27.148Z,25.89
2019-02-25T14:29:58.031Z,25.98
2019-02-25T14:32:24.973Z,26.06
2019-02-25T14:34:52.529Z,25.91
2019-02-25T14:37:19.861Z,26.11
2019-02-25T14:39:51.585Z,26.32
2019-02-25T14:42:16.560Z,26.31
2019-02-25T14:44:45.896Z,25.83
2019-02-25T14:47:20.544Z,25.18
2019-02-25T14:49:42.911Z,24.75
2019-02-25T14:52:11.674Z,24.71
2019-02-25T14:54:38.988Z,24.59
2019-02-25T14:57:05.999Z,24.80
2019-02-25T14:59:33.239Z,25.10
2019-02-25T15:02:02.107Z,25.57
2019-02-25T15:04:32.600Z,25.58
2019-02-25T15:07:00.252Z,25.78
2019-02-25T15:09:28.357Z,26.01
2019-02-25T15:11:57.929Z,25.63
2019-02-25T15:14:25.678Z,25.61
2019-02-25T15:16:53.162Z,25.95
2019-02-25T15:19:20.598Z,26.14
2019-02-25T15:21:50.062Z,25.79
2019-02-25T15:24:19.135Z,25.73
2019-02-25T15:26:46.303Z,25.75
2019-02-25T15:29:13.270Z,25.79
2019-02-25T15:31:40.576Z,25.67
2019-02-25T15:34:09.018Z,25.64
2019-02-25T15:36:36.286Z,25.62
2019-02-25T15:39:03.746Z,25.81
2019-02-25T15:41:32.365Z,25.82
2019-02-25T15:44:02.093Z,25.95
2019-02-25T15:46:28.873Z,26.07
2019-02-25T15:48:55.923Z,26.21
2019-02-25T15:51:23.454Z,26.16
2019-02-25T15:53:51.871Z,26.29
2019-02-25T15:56:19.101Z,26.42
2019-02-25T15:58:47.150Z,26.61
2019-02-25T16:01:14.661Z,26.37
2019-02-25T16:03:43.092Z,26.11
2019-02-25T16:06:12.175Z,25.67
2019-02-25T16:08:41.132Z,25.16
2019-02-25T16:11:08.496Z,24.57
2019-02-25T16:13:37.631Z,24.14
2019-02-25T16:16:05.379Z,23.99
2019-02-25T16:18:32.917Z,23.82
2019-02-25T16:21:08.924Z,23.68
2019-02-25T16:23:39.046Z,23.47
2019-02-25T16:26:05.241Z,23.29
2019-02-25T16:28:34.008Z,23.20
2019-02-25T16:31:03.654Z,23.04
2019-02-25T16:33:33.021Z,22.88
2019-02-25T16:36:03.983Z,22.92
2019-02-25T16:38:34.668Z,23.04
2019-02-25T16:41:06.231Z,22.89
2019-02-25T16:43:35.483Z,22.80
2019-02-25T16:46:06.195Z,22.72
2019-02-25T16:48:32.645Z,22.75
2019-02-25T16:51:00.604Z,22.75
2019-02-25T16:53:28.783Z,22.86
2019-02-25T16:55:57.399Z,23.08
2019-02-25T16:58:25.477Z,23.21
2019-02-25T17:00:56.109Z,23.29
2019-02-25T17:03:23.532Z,23.38
2019-02-25T17:05:50.576Z,23.54
2019-02-25T17:08:17.711Z,23.69
2019-02-25T17:10:44.686Z,23.75
2019-02-25T17:13:13.081Z,23.85
2019-02-25T17:15:40.374Z,23.88
2019-02-25T17:18:07.769Z,23.96
2019-02-25T17:20:35.089Z,23.96
2019-02-25T17:23:02.248Z,23.87
2019-02-25T17:25:31.686Z,23.80
2019-02-25T17:27:58.907Z,23.87
2019-02-25T17:30:26.376Z,24.32
2019-02-25T17:32:55.618Z,24.55
2019-02-25T17:35:24.204Z,24.56
2019-02-25T17:37:53.112Z,24.43
2019-02-25T17:40:20.100Z,24.33
2019-02-25T17:42:49.299Z,24.26
2019-02-25T17:45:18.314Z,24.16
2019-02-25T17:47:48.269Z,24.18
2019-02-25T17:50:15.620Z,24.37
2019-02-25T17:52:46.862Z,24.59
2019-02-25T17:55:14.755Z,24.77
2019-02-25T17:57:44.218Z,25.02
2019-02-25T18:00:13.211Z,25.22
2019-02-25T18:02:40.247Z,25.42
2019-02-25T18:05:07.379Z,25.29
2019-02-25T18:07:35.911Z,25.16
2019-02-25T18:10:05.471Z,25.17
2019-02-25T18:12:35.991Z,24.98
2019-02-25T18:15:18.180Z,25.02
2019-02-25T18:17:47.113Z,24.94
2019-02-25T18:20:14.568Z,25.02
2019-02-25T18:22:41.666Z,24.99
2019-02-25T18:25:10.681Z,24.92
2019-02-25T18:27:39.320Z,24.79
2019-02-25T18:30:06.715Z,24.97
2019-02-25T18:32:37.497Z,25.10
2019-02-25T18:35:12.210Z,25.22
2019-02-25T18:37:41.394Z,25.28
2019-02-25T18:40:09.470Z,25.08
2019-02-25T18:42:38.511Z,24.79
2019-02-25T18:45:10.974Z,24.74
2019-02-25T18:47:40.296Z,24.67
2019-02-25T18:50:08.124Z,24.62
2019-02-25T18:52:36.751Z,24.46
2019-02-25T18:55:05.020Z,24.73
2019-02-25T18:57:35.657Z,24.83
2019-02-25T19:00:08.385Z,24.62
2019-02-25T19:02:38.135Z,24.52
2019-02-25T19:05:13.029Z,24.63
2019-02-25T19:07:36.296Z,24.79
2019-02-25T19:10:03.370Z,25.04
2019-02-25T19:12:30.905Z,25.03
2019-02-25T19:14:59.941Z,25.05
2019-02-25T19:17:29.797Z,25.18
2019-02-25T19:19:57.503Z,25.25
2019-02-25T19:22:24.479Z,25.50
2019-02-25T19:24:54.830Z,25.70
2019-02-25T19:27:21.898Z,25.51
2019-02-25T19:29:51.443Z,25.43
2019-02-25T19:32:20.996Z,25.61
2019-02-25T19:34:51.899Z,25.53
2019-02-25T19:37:18.744Z,25.75
2019-02-25T19:39:46.843Z,25.88
2019-02-25T19:42:17.743Z,25.97
2019-02-25T19:44:46.739Z,25.81
2019-02-25T19:49:54.270Z,25.92
2019-02-25T19:52:21.269Z,25.90
2019-02-25T19:54:50.304Z,25.89
2019-02-25T19:57:18.710Z,25.94
2019-02-25T19:59:46.133Z,26.03
2019-02-25T20:02:16.221Z,26.20
2019-02-25T20:04:45.060Z,26.29
2019-02-25T20:07:15.996Z,26.18
2019-02-25T20:09:43.707Z,26.16
2019-02-25T20:12:10.762Z,26.08
2019-02-25T20:14:37.721Z,26.11
2019-02-25T20:17:07.321Z,26.20
2019-02-25T20:19:36.389Z,26.23
2019-02-25T20:22:04.480Z,26.38
2019-02-25T20:24:33.930Z,26.50
2019-02-25T20:27:02.540Z,26.51
2019-02-25T20:29:35.951Z,26.67
2019-02-25T20:32:00.592Z,26.58
2019-02-25T20:34:30.430Z,26.72
2019-02-25T20:36:59.898Z,26.70
2019-02-25T20:39:27.738Z,26.70
2019-02-25T20:41:57.043Z,26.73
2019-02-25T20:44:25.747Z,26.71
2019-02-25T20:46:54.639Z,26.74
2019-02-25T20:49:24.977Z,26.78
2019-02-25T20:51:52.752Z,26.78
2019-02-25T20:54:22.679Z,26.89
2019-02-25T20:56:51.118Z,26.93
2019-02-25T20:59:18.025Z,27.07
2019-02-25T21:01:46.696Z,27.12
2019-02-25T21:04:15.692Z,27.03
2019-02-25T21:06:44.067Z,27.00
2019-02-25T21:09:12.773Z,27.08
2019-02-25T21:11:40.319Z,27.03
2019-02-25T21:14:07.644Z,27.17
2019-02-25T21:16:34.728Z,27.03
2019-02-25T21:19:01.728Z,26.93
2019-02-25T21:21:30.888Z,27.01
2019-02-25T21:24:08.914Z,27.13
2019-02-25T21:26:33.885Z,27.22
2019-02-25T21:29:02.542Z,27.46
2019-02-25T21:31:34.101Z,27.58
2019-02-25T21:34:04.110Z,27.63
2019-02-25T21:36:33.890Z,27.79
2019-02-25T21:39:02.380Z,27.82
2019-02-25T21:41:31.153Z,27.73
2019-02-25T21:43:59.391Z,27.65
2019-02-25T21:46:27.011Z,27.58
2019-02-25T21:49:01.505Z,27.52
2019-02-25T21:51:30.337Z,27.42
2019-02-25T21:53:58.115Z,27.45
2019-02-25T21:56:26.995Z,27.35
2019-02-25T21:58:57.307Z,27.33
2019-02-25T22:01:26.812Z,27.23
2019-02-25T22:03:55.927Z,26.94
2019-02-25T22:06:24.463Z,26.90
2019-02-25T22:08:54.001Z,26.87
2019-02-25T22:11:20.362Z,26.79
2019-02-25T22:13:48.726Z,26.70
2019-02-25T22:16:21.869Z,26.65
2019-02-25T22:18:44.968Z,26.55
2019-02-25T22:21:14.207Z,26.45
2019-02-25T22:23:41.726Z,26.39
2019-02-25T22:26:08.863Z,26.38
2019-02-25T22:28:37.622Z,26.37
2019-02-25T22:31:07.889Z,26.40
2019-02-25T22:33:34.335Z,26.33
2019-02-25T22:36:02.355Z,26.35
2019-02-25T22:38:29.421Z,26.19
2019-02-25T22:40:58.095Z,26.05
2019-02-25T22:43:25.167Z,25.96
2019-02-25T22:45:58.118Z,25.93
2019-02-25T22:48:23.464Z,25.91
2019-02-25T22:50:55.351Z,25.94
2019-02-25T22:53:21.973Z,25.92
2019-02-25T22:55:49.927Z,25.89
2019-02-25T22:58:17.843Z,25.88
2019-02-25T23:00:45.326Z,25.89
2019-02-25T23:03:17.335Z,26.01
2019-02-25T23:05:43.674Z,26.06
2019-02-25T23:08:13.211Z,26.35
2019-02-25T23:10:42.551Z,26.42
2019-02-25T23:13:09.809Z,26.57
2019-02-25T23:15:36.885Z,26.86
2019-02-25T23:18:05.495Z,26.95
2019-02-25T23:20:34.032Z,27.09
2019-02-25T23:23:04.853Z,27.31
2019-02-25T23:25:30.231Z,27.51
2019-02-25T23:27:58.381Z,27.66
2019-02-25T23:30:26.061Z,27.74
2019-02-25T23:32:54.941Z,27.76
2019-02-25T23:35:26.197Z,27.79
2019-02-25T23:37:56.729Z,27.89
2019-02-25T23:40:24.184Z,27.90
2019-02-25T23:42:51.229Z,28.05
2019-02-25T23:45:20.471Z,28.15
2019-02-25T23:47:49.454Z,28.25
2019-02-25T23:50:16.901Z,28.33
2019-02-25T23:52:43.965Z,28.58
2019-02-25T23:55:14.257Z,28.73
2019-02-25T23:57:39.994Z,28.92
